createdAt,value
2022-09-04T00:02:12.327Z,90.53
2022-09-04T00:05:12.101Z,90.78
2022-09-04T00:08:25.793Z,90.93
2022-09-04T00:10:56.753Z,90.63
2022-09-04T00:13:41.973Z,90.97
2022-09-04T00:16:17.331Z,91.15
2022-09-04T00:19:02.328Z,91.26
2022-09-04T00:21:56.609Z,90.96
2022-09-04T00:24:55.434Z,91.09
2022-09-04T00:27:30.774Z,91.23
2022-09-04T00:30:05.422Z,91.08
2022-09-04T00:32:49.544Z,91.18
2022-09-04T00:35:51.672Z,91.01
2022-09-04T00:39:00.636Z,90.94
2022-09-04T00:41:58.493Z,90.84
2022-09-04T00:44:52.570Z,91.19
2022-09-04T00:47:51.425Z,91.14
2022-09-04T00:51:15.783Z,90.94
2022-09-04T00:54:10.509Z,91.06
2022-09-04T00:57:35.148Z,91.08
2022-09-04T01:00:15.976Z,91.06
2022-09-04T01:03:01.602Z,90.82
2022-09-04T01:05:47.343Z,90.77
2022-09-04T01:08:56.405Z,91.01
2022-09-04T01:11:43.947Z,90.94
2022-09-04T01:14:49.117Z,90.61
2022-09-04T01:17:43.990Z,90.74
2022-09-04T01:21:15.451Z,90.73
2022-09-04T01:23:48.838Z,90.54
2022-09-04T01:26:48.563Z,90.41
2022-09-04T01:29:24.101Z,90.57
2022-09-04T01:32:07.230Z,90.66
2022-09-04T01:34:48.869Z,90.75
2022-09-04T01:38:22.546Z,90.81
2022-09-04T01:41:11.421Z,90.74
2022-09-04T01:43:40.144Z,90.73
2022-09-04T01:46:35.366Z,90.75
2022-09-04T01:49:35.670Z,90.86
2022-09-04T01:52:36.250Z,90.81
2022-09-04T01:55:36.541Z,91.15
2022-09-04T01:58:09.853Z,90.79
2022-09-04T02:00:49.362Z,90.65
2022-09-04T02:03:51.026Z,90.79
2022-09-04T02:06:51.383Z,91.23
2022-09-04T02:09:50.494Z,91.15
2022-09-04T02:12:33.985Z,90.67
2022-09-04T02:16:14.364Z,90.65
2022-09-04T02:19:09.859Z,91.06
2022-09-04T02:21:44.622Z,91.56
2022-09-04T02:24:26.019Z,90.92
2022-09-04T02:27:20.587Z,90.48
2022-09-04T02:30:10.050Z,90.59
2022-09-04T02:33:20.496Z,90.54
2022-09-04T02:36:51.514Z,90.46
2022-09-04T02:40:18.040Z,90.40
2022-09-04T02:43:28.475Z,90.07
2022-09-04T02:46:49.331Z,90.09
2022-09-04T02:49:48.170Z,90.39
2022-09-04T02:53:18.278Z,90.33
2022-09-04T02:56:31.970Z,90.43
2022-09-04T02:59:29.418Z,90.30
2022-09-04T03:02:06.443Z,90.37
2022-09-04T03:04:41.604Z,90.23
2022-09-04T03:07:23.853Z,90.23
2022-09-04T03:10:18.198Z,90.10
2022-09-04T03:12:52.588Z,90.23
2022-09-04T03:15:50.850Z,90.31
2022-09-04T03:18:36.262Z,90.21
2022-09-04T03:21:19.184Z,90.37
2022-09-04T03:23:55.837Z,90.47
2022-09-04T03:26:32.232Z,90.66
2022-09-04T03:29:11.559Z,90.87
2022-09-04T03:32:31.975Z,91.02
2022-09-04T03:35:54.621Z,90.56
2022-09-04T03:38:48.594Z,90.64
2022-09-04T03:41:34.284Z,90.68
2022-09-04T03:44:52.287Z,90.26
2022-09-04T03:47:52.474Z,90.12
2022-09-04T03:50:58.086Z,90.15
2022-09-04T03:53:34.429Z,90.51
2022-09-04T03:56:55.672Z,90.40
2022-09-04T04:00:08.713Z,90.10
2022-09-04T04:03:14.091Z,90.04
2022-09-04T04:06:23.034Z,89.93
2022-09-04T04:09:24.608Z,90.00
2022-09-04T04:12:16.139Z,90.10
2022-09-04T04:14:56.778Z,90.26
2022-09-04T04:17:42.980Z,90.33
2022-09-04T04:20:45.902Z,90.25
2022-09-04T04:23:36.005Z,90.11
2022-09-04T04:26:21.655Z,90.05
2022-09-04T04:29:15.675Z,89.96
2022-09-04T04:32:11.196Z,89.64
2022-09-04T04:35:03.161Z,89.67
2022-09-04T04:37:49.993Z,89.82
2022-09-04T04:40:51.248Z,90.19
2022-09-04T04:43:43.389Z,89.73
2022-09-04T04:46:26.730Z,89.82
2022-09-04T04:49:33.865Z,89.48
2022-09-04T04:52:21.076Z,89.79
2022-09-04T04:55:21.002Z,89.53
2022-09-04T04:58:00.376Z,89.57
2022-09-04T05:01:09.022Z,89.69
2022-09-04T05:04:29.709Z,89.76
2022-09-04T05:07:10.131Z,89.63
2022-09-04T05:09:53.323Z,89.07
2022-09-04T05:12:51.689Z,88.74
2022-09-04T05:16:07.950Z,88.65
2022-09-04T05:18:48.068Z,88.90
2022-09-04T05:21:47.266Z,88.60
2022-09-04T05:24:48.521Z,88.54
2022-09-04T05:27:45.765Z,88.20
2022-09-04T05:30:32.586Z,87.68
2022-09-04T05:34:08.468Z,87.36
2022-09-04T05:36:51.382Z,87.15
2022-09-04T05:40:14.923Z,87.04
2022-09-04T05:43:19.780Z,86.85
2022-09-04T05:45:53.049Z,86.66
2022-09-04T05:49:01.420Z,86.26
2022-09-04T05:52:09.791Z,85.86
2022-09-04T05:55:21.455Z,85.28
2022-09-04T05:58:28.082Z,83.91
2022-09-04T06:01:28.380Z,84.48
2022-09-04T06:04:50.413Z,84.03
2022-09-04T06:07:34.203Z,83.65
2022-09-04T06:10:46.002Z,82.04
2022-09-04T06:13:28.722Z,82.45
2022-09-04T06:16:02.416Z,81.17
2022-09-04T06:19:00.843Z,79.95
2022-09-04T06:21:31.314Z,80.95
2022-09-04T06:25:09.384Z,81.55
2022-09-04T06:28:05.839Z,81.12
2022-09-04T06:31:12.399Z,80.09
2022-09-04T06:34:04.136Z,79.25
2022-09-04T06:37:10.486Z,78.89
2022-09-04T06:40:33.338Z,78.05
2022-09-04T06:43:41.304Z,77.62
2022-09-04T06:46:38.618Z,76.78
2022-09-04T06:49:47.677Z,77.22
2022-09-04T06:52:55.473Z,75.61
2022-09-04T06:56:23.650Z,75.31
2022-09-04T06:59:44.664Z,74.40
2022-09-04T07:02:37.018Z,75.29
2022-09-04T07:05:24.950Z,74.96
2022-09-04T07:08:24.228Z,73.97
2022-09-04T07:11:37.141Z,73.56
2022-09-04T07:14:38.284Z,73.39
2022-09-04T07:17:17.730Z,73.60
2022-09-04T07:20:07.189Z,73.07
2022-09-04T07:23:04.624Z,73.76
2022-09-04T07:26:10.920Z,74.43
2022-09-04T07:29:26.110Z,73.73
2022-09-04T07:32:17.529Z,71.30
2022-09-04T07:34:52.757Z,71.31
2022-09-04T07:37:58.122Z,72.36
2022-09-04T07:40:47.011Z,71.23
2022-09-04T07:43:43.612Z,71.83
2022-09-04T07:46:32.769Z,71.22
2022-09-04T07:49:09.821Z,70.87
2022-09-04T07:51:54.784Z,71.30
2022-09-04T07:55:02.905Z,71.48
2022-09-04T07:58:03.770Z,70.79
2022-09-04T08:00:48.398Z,70.84
2022-09-04T08:04:01.200Z,69.26
2022-09-04T08:07:11.404Z,69.85
2022-09-04T08:10:12.579Z,70.18
2022-09-04T08:12:49.063Z,69.51
2022-09-04T08:15:23.234Z,68.93
2022-09-04T08:18:15.617Z,68.69
2022-09-04T08:21:11.963Z,67.74
2022-09-04T08:24:28.100Z,67.25
2022-09-04T08:27:36.059Z,69.99
2022-09-04T08:30:14.764Z,72.43
2022-09-04T08:33:03.436Z,71.12
2022-09-04T08:35:55.737Z,68.42
2022-09-04T08:39:04.612Z,67.67
2022-09-04T08:42:05.426Z,64.03
2022-09-04T08:45:30.238Z,64.43
2022-09-04T08:48:35.391Z,65.44
2022-09-04T08:51:36.585Z,65.68
2022-09-04T08:54:25.852Z,64.13
2022-09-04T08:57:41.340Z,64.16
2022-09-04T09:00:40.464Z,67.02
2022-09-04T09:03:47.151Z,64.83
2022-09-04T09:06:39.270Z,65.08
2022-09-04T09:09:44.308Z,63.68
2022-09-04T09:12:58.485Z,64.54
2022-09-04T09:15:59.673Z,64.03
2022-09-04T09:18:57.550Z,62.61
2022-09-04T09:21:49.015Z,62.68
2022-09-04T09:24:53.794Z,62.15
2022-09-04T09:27:33.581Z,62.74
2022-09-04T09:30:08.946Z,63.34
2022-09-04T09:33:04.089Z,62.09
2022-09-04T09:35:41.642Z,63.02
2022-09-04T09:38:36.225Z,67.22
2022-09-04T09:41:09.421Z,64.77
2022-09-04T09:44:33.187Z,62.61
2022-09-04T09:47:57.659Z,62.86
2022-09-04T09:51:12.868Z,63.39
2022-09-04T09:54:10.102Z,61.72
2022-09-04T09:57:13.388Z,63.98
2022-09-04T10:00:05.628Z,68.52
2022-09-04T10:02:54.124Z,63.17
2022-09-04T10:05:40.173Z,61.22
2022-09-04T10:08:35.584Z,61.80
2022-09-04T10:11:28.510Z,61.74
2022-09-04T10:14:36.571Z,62.12
2022-09-04T10:17:28.261Z,62.87
2022-09-04T10:20:28.588Z,62.72
2022-09-04T10:23:05.379Z,67.68
2022-09-04T10:25:54.628Z,68.01
2022-09-04T10:29:09.731Z,64.14
2022-09-04T10:31:46.282Z,60.60
2022-09-04T10:34:34.496Z,60.73
2022-09-04T10:37:26.136Z,61.13
2022-09-04T10:40:39.712Z,60.46
2022-09-04T10:43:42.653Z,59.62
2022-09-04T10:46:20.691Z,61.09
2022-09-04T10:49:19.802Z,60.56
2022-09-04T10:52:37.307Z,59.92
2022-09-04T10:55:43.617Z,57.51
2022-09-04T10:58:29.855Z,58.09
2022-09-04T11:01:31.968Z,62.72
2022-09-04T11:04:13.597Z,59.71
2022-09-04T11:07:22.174Z,58.55
2022-09-04T11:10:20.272Z,58.69
2022-09-04T11:13:30.601Z,59.76
2022-09-04T11:16:32.264Z,62.47
2022-09-04T11:19:51.629Z,60.64
2022-09-04T11:23:09.573Z,58.50
2022-09-04T11:26:05.494Z,59.75
2022-09-04T11:28:52.665Z,61.64
2022-09-04T11:31:48.883Z,61.52
2022-09-04T11:34:58.740Z,58.00
2022-09-04T11:38:00.246Z,56.56
2022-09-04T11:41:07.382Z,55.34
2022-09-04T11:44:33.423Z,57.43
2022-09-04T11:47:20.463Z,55.30
2022-09-04T11:50:26.379Z,53.51
2022-09-04T11:53:13.614Z,54.77
2022-09-04T11:56:20.520Z,54.77
2022-09-04T11:59:45.489Z,61.48
2022-09-04T12:02:59.686Z,58.08
2022-09-04T12:06:46.274Z,60.25
2022-09-04T12:09:44.604Z,57.29
2022-09-04T12:12:47.211Z,57.88
2022-09-04T12:15:44.421Z,54.83
2022-09-04T12:18:54.327Z,56.05
2022-09-04T12:22:01.157Z,56.50
2022-09-04T12:25:06.358Z,56.11
2022-09-04T12:28:41.395Z,52.26
2022-09-04T12:31:54.163Z,51.97
2022-09-04T12:35:04.197Z,53.91
2022-09-04T12:38:08.423Z,56.35
2022-09-04T12:41:19.356Z,56.04
2022-09-04T12:44:08.717Z,55.41
2022-09-04T12:47:05.488Z,53.34
2022-09-04T12:50:22.202Z,52.17
2022-09-04T12:53:48.184Z,52.91
2022-09-04T12:56:29.886Z,52.60
2022-09-04T12:59:16.207Z,52.97
2022-09-04T13:01:59.058Z,52.89
2022-09-04T13:05:28.365Z,54.48
2022-09-04T13:08:18.651Z,51.84
2022-09-04T13:11:18.930Z,49.94
2022-09-04T13:14:10.837Z,49.95
2022-09-04T13:16:54.853Z,51.36
2022-09-04T13:20:00.334Z,50.17
2022-09-04T13:22:57.874Z,51.98
2022-09-04T13:25:35.854Z,53.16
2022-09-04T13:28:35.716Z,52.99
2022-09-04T13:31:50.403Z,53.72
2022-09-04T13:34:52.576Z,53.19
2022-09-04T13:38:16.637Z,52.62
2022-09-04T13:40:59.987Z,51.82
2022-09-04T13:43:55.570Z,52.56
2022-09-04T13:46:37.696Z,52.13
2022-09-04T13:49:35.596Z,51.58
2022-09-04T13:52:16.857Z,48.88
2022-09-04T13:54:52.327Z,48.76
2022-09-04T13:57:30.042Z,49.99
2022-09-04T14:00:03.828Z,45.99
2022-09-04T14:02:34.257Z,50.17
2022-09-04T14:05:13.017Z,49.88
2022-09-04T14:07:48.558Z,50.51
2022-09-04T14:11:16.998Z,48.93
2022-09-04T14:14:23.091Z,49.39
2022-09-04T14:16:54.460Z,50.38
2022-09-04T14:19:35.665Z,48.43
2022-09-04T14:22:33.689Z,48.98
2022-09-04T14:28:45.201Z,47.16
2022-09-04T14:30:29.445Z,47.56
2022-09-04T14:31:46.476Z,47.60
2022-09-04T14:34:27.362Z,44.99
2022-09-04T14:37:13.195Z,42.70
2022-09-04T14:40:25.430Z,42.78
2022-09-04T14:43:24.707Z,45.10
2022-09-04T14:46:42.853Z,46.16
2022-09-04T14:49:21.300Z,47.05
2022-09-04T14:51:56.167Z,48.04
2022-09-04T14:54:29.516Z,47.97
2022-09-04T14:57:28.906Z,45.66
2022-09-04T15:00:10.699Z,45.70
2022-09-04T15:03:12.078Z,47.17
2022-09-04T15:06:27.219Z,47.55
2022-09-04T15:09:16.743Z,47.19
2022-09-04T15:11:45.853Z,47.75
2022-09-04T15:14:33.924Z,47.35
2022-09-04T15:17:26.259Z,46.68
2022-09-04T15:20:13.177Z,46.60
2022-09-04T15:23:01.452Z,45.21
2022-09-04T15:26:00.863Z,47.06
2022-09-04T15:28:44.336Z,46.76
2022-09-04T15:31:31.414Z,45.28
2022-09-04T15:34:06.367Z,45.95
2022-09-04T15:36:38.765Z,46.98
2022-09-04T15:39:18.328Z,46.63
2022-09-04T15:41:49.547Z,46.07
2022-09-04T15:44:43.078Z,46.14
2022-09-04T15:47:58.498Z,45.56
2022-09-04T15:50:31.055Z,44.92
2022-09-04T15:53:14.675Z,45.48
2022-09-04T15:55:44.136Z,45.46
2022-09-04T15:58:32.078Z,45.06
2022-09-04T16:01:08.927Z,45.34
2022-09-04T16:03:46.860Z,45.63
2022-09-04T16:06:45.202Z,46.04
2022-09-04T16:09:20.941Z,46.13
2022-09-04T16:12:12.346Z,46.28
2022-09-04T16:14:53.285Z,46.37
2022-09-04T16:17:28.152Z,46.73
2022-09-04T16:20:14.694Z,46.96
2022-09-04T16:22:48.703Z,46.67
2022-09-04T16:25:19.252Z,46.35
2022-09-04T16:28:07.627Z,46.82
2022-09-04T16:30:55.616Z,46.87
2022-09-04T16:33:50.577Z,46.90
2022-09-04T16:36:25.160Z,47.06
2022-09-04T16:39:13.916Z,47.06
2022-09-04T16:42:11.872Z,47.13
2022-09-04T16:44:47.873Z,46.78
2022-09-04T16:47:35.952Z,46.70
2022-09-04T16:50:18.664Z,46.83
2022-09-04T16:53:13.905Z,46.88
2022-09-04T16:55:49.719Z,46.94
2022-09-04T16:58:29.946Z,46.97
2022-09-04T17:01:25.350Z,47.21
2022-09-04T17:04:16.970Z,47.42
2022-09-04T17:06:53.830Z,47.51
2022-09-04T17:09:38.195Z,48.18
2022-09-04T17:12:47.476Z,48.72
2022-09-04T17:15:57.677Z,49.08
2022-09-04T17:18:27.224Z,49.49
2022-09-04T17:26:28.097Z,49.85
2022-09-04T17:29:02.192Z,50.05
2022-09-04T17:29:22.447Z,50.14
2022-09-04T17:31:34.575Z,50.05
2022-09-04T17:40:32.264Z,49.78
2022-09-04T17:40:36.610Z,50.00
2022-09-04T17:41:36.267Z,50.19
2022-09-04T17:44:49.504Z,49.80
2022-09-04T17:47:45.954Z,50.18
2022-09-04T17:50:25.169Z,50.35
2022-09-04T17:53:17.715Z,50.21
2022-09-04T17:56:51.728Z,50.00
2022-09-04T17:59:45.820Z,50.20
2022-09-04T18:02:48.331Z,50.37
2022-09-04T18:05:53.529Z,50.50
2022-09-04T18:08:55.870Z,50.41
2022-09-04T18:11:29.997Z,50.73
2022-09-04T18:14:26.132Z,51.05
2022-09-04T18:17:25.725Z,51.32
2022-09-04T18:20:37.851Z,51.70
2022-09-04T18:23:46.400Z,52.03
2022-09-04T18:26:53.861Z,52.15
2022-09-04T18:32:55.697Z,52.52
2022-09-04T18:37:11.744Z,52.56
2022-09-04T18:37:19.449Z,53.00
2022-09-04T18:39:35.927Z,53.45
2022-09-04T18:50:22.853Z,53.42
2022-09-04T18:50:38.911Z,53.10
2022-09-04T18:50:45.517Z,53.30
2022-09-04T18:51:51.412Z,53.47
2022-09-04T18:54:41.479Z,53.12
2022-09-04T18:57:49.141Z,52.90
2022-09-04T19:01:03.789Z,52.97
2022-09-04T19:04:00.948Z,52.84
2022-09-04T19:07:06.872Z,53.16
2022-09-04T19:10:02.213Z,53.62
2022-09-04T19:16:22.039Z,54.06
2022-09-04T19:19:52.373Z,53.87
2022-09-04T19:23:06.212Z,54.17
2022-09-04T19:26:34.735Z,54.12
2022-09-04T19:29:44.001Z,54.57
2022-09-04T19:32:37.787Z,55.13
2022-09-04T19:35:19.694Z,55.62
2022-09-04T19:43:27.342Z,55.72
2022-09-04T19:46:01.158Z,55.95
2022-09-04T19:46:13.317Z,56.13
2022-09-04T19:53:17.607Z,56.29
2022-09-04T19:53:30.811Z,56.76
2022-09-04T19:56:29.277Z,56.84
2022-09-04T19:59:12.745Z,57.01
2022-09-04T20:02:03.088Z,57.02
2022-09-04T20:05:07.141Z,57.13
2022-09-04T20:08:26.204Z,57.32
2022-09-04T20:11:36.299Z,57.79
2022-09-04T20:14:38.283Z,57.78
2022-09-04T20:17:38.752Z,58.08
2022-09-04T20:20:23.409Z,58.36
2022-09-04T20:23:43.845Z,58.43
2022-09-04T20:26:31.994Z,58.85
2022-09-04T20:29:54.658Z,59.13
2022-09-04T20:32:28.691Z,59.27
2022-09-04T20:35:13.651Z,59.49
2022-09-04T20:38:03.107Z,59.50
2022-09-04T20:40:41.970Z,59.96
2022-09-04T20:43:36.094Z,60.14
2022-09-04T20:49:16.636Z,60.33
2022-09-04T20:52:55.268Z,60.70
2022-09-04T20:53:05.798Z,61.33
2022-09-04T20:55:19.463Z,61.62
2022-09-04T21:03:13.104Z,62.02
2022-09-04T21:03:24.516Z,62.35
2022-09-04T21:05:46.722Z,62.47
2022-09-04T21:08:24.123Z,62.39
2022-09-04T21:11:38.782Z,61.95
2022-09-04T21:14:01.143Z,62.15
2022-09-04T21:17:27.505Z,62.19
2022-09-04T21:20:13.694Z,62.37
2022-09-04T21:22:50.063Z,62.53
2022-09-04T21:25:54.532Z,62.63
2022-09-04T21:29:10.700Z,62.93
2022-09-04T21:32:27.313Z,63.66
2022-09-04T21:35:09.119Z,63.90
2022-09-04T21:37:40.042Z,64.29
2022-09-04T21:40:49.883Z,64.32
2022-09-04T21:43:50.248Z,64.31
2022-09-04T21:46:32.704Z,64.11
2022-09-04T21:49:09.813Z,64.11
2022-09-04T21:51:47.322Z,63.85
2022-09-04T21:57:08.937Z,64.03
2022-09-04T22:02:36.517Z,64.18
2022-09-04T22:02:39.337Z,64.26
2022-09-04T22:05:09.259Z,64.47
2022-09-04T22:13:28.896Z,64.82
2022-09-04T22:13:39.420Z,65.01
2022-09-04T22:14:35.237Z,65.09
2022-09-04T22:17:22.724Z,65.31
2022-09-04T22:20:28.019Z,65.39
2022-09-04T22:23:29.554Z,65.43
2022-09-04T22:26:30.371Z,65.74
2022-09-04T22:29:40.128Z,65.57
2022-09-04T22:32:20.465Z,65.85
2022-09-04T22:35:36.195Z,65.81
2022-09-04T22:38:54.228Z,66.00
2022-09-04T22:42:09.900Z,66.23
2022-09-04T22:44:50.441Z,66.41
2022-09-04T22:47:27.114Z,66.56
2022-09-04T22:50:50.423Z,66.56
2022-09-04T22:53:51.784Z,66.95
2022-09-04T22:56:40.196Z,67.06
2022-09-04T22:59:27.626Z,67.08
2022-09-04T23:03:07.101Z,67.35
2022-09-04T23:06:18.917Z,67.64
2022-09-04T23:13:44.861Z,67.71
2022-09-04T23:13:59.885Z,67.79
2022-09-04T23:15:48.745Z,67.85
2022-09-04T23:20:50.189Z,67.63
2022-09-04T23:26:47.558Z,67.65
2022-09-04T23:26:49.806Z,67.84
2022-09-04T23:28:34.701Z,67.95
2022-09-04T23:31:53.075Z,68.10
2022-09-04T23:35:26.880Z,68.09
2022-09-04T23:39:03.141Z,68.16
2022-09-04T23:42:11.180Z,68.18
2022-09-04T23:45:02.338Z,68.33
2022-09-04T23:48:09.371Z,68.68
2022-09-04T23:51:25.878Z,68.84
2022-09-04T23:54:25.232Z,68.87
2022-09-04T23:57:26.505Z,68.92
